Overview Statistics Trail Chart Weather Telemetry Raw packets
 

This is the latest recevied weather packets stored in our database for station/object Waldburg. If no packets are shown the sender has not sent any weather packets the latest 10 day(s).

<< 1 2 3 4 5 6 >>
Time Temp. Humidity Pressure Rain* Wind** Luminosity Snow
1788629559 17.22° C 87% 1021.6 hPa 3.3 mm - - -
1788627730 17.78° C 86% 1021.6 hPa 3.3 mm - - -
1788625931 17.78° C 85% 1021.5 hPa 3.3 mm - - -
1788624131 17.78° C 81% 1021.4 hPa 3.3 mm - - -
1788622331 18.33° C 81% 1021.3 hPa 3.3 mm - - -
1788620530 18.89° C 79% 1021.4 hPa 3.3 mm - - -
1788618730 20° C 73% 1021.3 hPa 3.05 mm - - -
1788616930 20.56° C 77% 1021 hPa 3.05 mm - - -
1788615130 21.11° C 76% 1020.7 hPa 3.05 mm - - -
1788613330 21.11° C 77% 1020.7 hPa 3.05 mm - - -
1788611530 21.11° C 82% 1020.7 hPa 3.05 mm - - -
1788609730 19.44° C 86% 1020.8 hPa 3.05 mm - - -
1788607930 17.22° C 88% 1020.6 hPa 3.05 mm - - -
1788606130 18.33° C 81% 1020.6 hPa 1.52 mm - - -
1788604330 17.78° C 81% 1020.5 hPa 0.51 mm - - -
1788602530 17.78° C 86% 1020.4 hPa 0.51 mm - - -
1788600731 18.33° C 86% 1020 hPa 0.51 mm - - -
1788598930 18.33° C 85% 1019.6 hPa 0.51 mm - - -
1788597131 18.33° C 88% 1019.3 hPa 0.51 mm - - -
1788595330 17.78° C 88% 1019.1 hPa 0.51 mm - - -
1788593530 17.78° C 86% 1018.7 hPa 0.51 mm - - -
1788591730 18.33° C 83% 1018.4 hPa 0 mm - - -
1788589930 18.33° C 81% 1018.2 hPa 0 mm - - -
1788588130 18.33° C 79% 1017.8 hPa 0 mm - - -
1788586329 18.89° C 77% 1018.1 hPa 0 mm - - -

* Rain since midnight (hover to see other rain measurements)
** Current wind speed in m/s (hover to see current wind gust speed)